sensor_id;sensor_type;location;lat;lon;timestamp;temperature;humidity
43227;DHT22;28839;52.404;9.808;2022-08-03T00:05:10;20.90;99.90
43227;DHT22;28839;52.404;9.808;2022-08-03T00:12:05;20.70;99.90
43227;DHT22;28839;52.404;9.808;2022-08-03T00:18:58;20.60;99.90
43227;DHT22;28839;52.404;9.808;2022-08-03T00:25:54;20.40;99.90
43227;DHT22;28839;52.404;9.808;2022-08-03T00:32:48;20.30;99.90
43227;DHT22;28839;52.404;9.808;2022-08-03T00:39:42;20.00;99.90
43227;DHT22;28839;52.404;9.808;2022-08-03T00:46:39;19.90;99.90
43227;DHT22;28839;52.404;9.808;2022-08-03T00:53:34;19.80;99.90
43227;DHT22;28839;52.404;9.808;2022-08-03T01:00:28;19.70;99.90
43227;DHT22;28839;52.404;9.808;2022-08-03T01:07:32;19.60;99.90
43227;DHT22;28839;52.404;9.808;2022-08-03T01:14:36;19.60;99.90
43227;DHT22;28839;52.404;9.808;2022-08-03T01:21:35;19.50;99.90
43227;DHT22;28839;52.404;9.808;2022-08-03T01:28:47;19.40;99.90
43227;DHT22;28839;52.404;9.808;2022-08-03T01:35:50;19.40;99.90
43227;DHT22;28839;52.404;9.808;2022-08-03T01:42:48;19.40;99.90
43227;DHT22;28839;52.404;9.808;2022-08-03T01:49:44;19.40;99.90
43227;DHT22;28839;52.404;9.808;2022-08-03T01:56:41;19.70;99.90
43227;DHT22;28839;52.404;9.808;2022-08-03T02:03:37;19.50;99.90
43227;DHT22;28839;52.404;9.808;2022-08-03T02:10:31;19.50;99.90
43227;DHT22;28839;52.404;9.808;2022-08-03T02:17:28;19.80;99.90
43227;DHT22;28839;52.404;9.808;2022-08-03T02:24:22;19.50;99.90
43227;DHT22;28839;52.404;9.808;2022-08-03T02:31:24;19.50;99.90
43227;DHT22;28839;52.404;9.808;2022-08-03T02:38:26;19.80;99.90
43227;DHT22;28839;52.404;9.808;2022-08-03T02:45:23;19.70;99.90
43227;DHT22;28839;52.404;9.808;2022-08-03T02:52:19;19.90;99.90
43227;DHT22;28839;52.404;9.808;2022-08-03T02:59:17;19.90;99.90
43227;DHT22;28839;52.404;9.808;2022-08-03T03:06:12;19.70;99.90
43227;DHT22;28839;52.404;9.808;2022-08-03T03:13:06;19.80;99.90
43227;DHT22;28839;52.404;9.808;2022-08-03T03:20:03;19.80;99.90
43227;DHT22;28839;52.404;9.808;2022-08-03T03:26:58;19.60;99.90
43227;DHT22;28839;52.404;9.808;2022-08-03T03:33:52;19.50;99.90
43227;DHT22;28839;52.404;9.808;2022-08-03T03:40:47;19.60;99.90
43227;DHT22;28839;52.404;9.808;2022-08-03T03:47:41;19.70;99.90
43227;DHT22;28839;52.404;9.808;2022-08-03T03:54:39;19.60;99.90
43227;DHT22;28839;52.404;9.808;2022-08-03T04:01:35;19.60;99.90
43227;DHT22;28839;52.404;9.808;2022-08-03T04:08:29;19.70;99.90
43227;DHT22;28839;52.404;9.808;2022-08-03T04:15:41;19.70;99.90
43227;DHT22;28839;52.404;9.808;2022-08-03T04:22:36;19.90;99.90
43227;DHT22;28839;52.404;9.808;2022-08-03T04:29:34;19.90;99.90
43227;DHT22;28839;52.404;9.808;2022-08-03T04:36:31;19.90;99.90
43227;DHT22;28839;52.404;9.808;2022-08-03T04:43:28;20.00;99.90
43227;DHT22;28839;52.404;9.808;2022-08-03T04:50:24;20.00;99.90
43227;DHT22;28839;52.404;9.808;2022-08-03T04:57:20;20.40;99.90
43227;DHT22;28839;52.404;9.808;2022-08-03T05:04:15;20.40;99.90
43227;DHT22;28839;52.404;9.808;2022-08-03T05:11:09;20.50;99.90
43227;DHT22;28839;52.404;9.808;2022-08-03T05:18:03;20.60;99.90
43227;DHT22;28839;52.404;9.808;2022-08-03T05:24:59;20.80;99.90
43227;DHT22;28839;52.404;9.808;2022-08-03T05:31:54;21.30;99.90
43227;DHT22;28839;52.404;9.808;2022-08-03T05:38:48;21.60;99.90
43227;DHT22;28839;52.404;9.808;2022-08-03T05:45:44;21.60;99.90
43227;DHT22;28839;52.404;9.808;2022-08-03T05:52:38;21.80;99.90
43227;DHT22;28839;52.404;9.808;2022-08-03T05:59:32;22.10;99.90
43227;DHT22;28839;52.404;9.808;2022-08-03T06:06:27;22.20;99.90
43227;DHT22;28839;52.404;9.808;2022-08-03T06:13:21;22.30;99.90
43227;DHT22;28839;52.404;9.808;2022-08-03T06:20:16;22.70;99.90
43227;DHT22;28839;52.404;9.808;2022-08-03T06:27:12;23.20;99.90
43227;DHT22;28839;52.404;9.808;2022-08-03T06:34:06;23.50;99.90
43227;DHT22;28839;52.404;9.808;2022-08-03T06:41:00;25.20;99.90
43227;DHT22;28839;52.404;9.808;2022-08-03T06:48:01;26.20;99.90
43227;DHT22;28839;52.404;9.808;2022-08-03T06:54:55;26.60;99.90
43227;DHT22;28839;52.404;9.808;2022-08-03T07:01:49;26.10;99.90
43227;DHT22;28839;52.404;9.808;2022-08-03T07:08:44;26.00;99.90
43227;DHT22;28839;52.404;9.808;2022-08-03T07:15:39;26.50;99.90
43227;DHT22;28839;52.404;9.808;2022-08-03T07:22:33;27.40;99.90
43227;DHT22;28839;52.404;9.808;2022-08-03T07:29:28;27.00;99.90
43227;DHT22;28839;52.404;9.808;2022-08-03T07:36:22;26.30;99.90
43227;DHT22;28839;52.404;9.808;2022-08-03T07:43:16;26.90;99.90
43227;DHT22;28839;52.404;9.808;2022-08-03T07:50:11;27.80;99.90
43227;DHT22;28839;52.404;9.808;2022-08-03T07:57:05;28.50;99.90
43227;DHT22;28839;52.404;9.808;2022-08-03T08:03:59;28.30;99.90
43227;DHT22;28839;52.404;9.808;2022-08-03T08:10:54;29.40;99.90
43227;DHT22;28839;52.404;9.808;2022-08-03T08:17:50;28.90;99.90
43227;DHT22;28839;52.404;9.808;2022-08-03T08:24:45;30.00;99.90
43227;DHT22;28839;52.404;9.808;2022-08-03T08:31:41;29.50;99.90
43227;DHT22;28839;52.404;9.808;2022-08-03T08:38:35;30.40;99.90
43227;DHT22;28839;52.404;9.808;2022-08-03T08:45:30;30.60;99.90
43227;DHT22;28839;52.404;9.808;2022-08-03T08:52:28;30.40;99.90
43227;DHT22;28839;52.404;9.808;2022-08-03T08:59:23;30.60;99.90
43227;DHT22;28839;52.404;9.808;2022-08-03T09:06:18;31.50;99.90
43227;DHT22;28839;52.404;9.808;2022-08-03T09:13:13;31.50;99.90
43227;DHT22;28839;52.404;9.808;2022-08-03T09:20:08;32.10;99.90
43227;DHT22;28839;52.404;9.808;2022-08-03T09:27:04;31.80;99.90
43227;DHT22;28839;52.404;9.808;2022-08-03T09:34:02;31.30;99.90
43227;DHT22;28839;52.404;9.808;2022-08-03T09:40:56;31.70;99.50
43227;DHT22;28839;52.404;9.808;2022-08-03T09:47:50;31.10;98.30
43227;DHT22;28839;52.404;9.808;2022-08-03T09:54:50;31.60;97.90
43227;DHT22;28839;52.404;9.808;2022-08-03T10:01:44;32.20;98.70
43227;DHT22;28839;52.404;9.808;2022-08-03T10:08:38;31.50;99.00
43227;DHT22;28839;52.404;9.808;2022-08-03T10:15:33;32.00;98.10
43227;DHT22;28839;52.404;9.808;2022-08-03T10:22:31;32.50;98.20
43227;DHT22;28839;52.404;9.808;2022-08-03T10:29:27;32.50;97.60
43227;DHT22;28839;52.404;9.808;2022-08-03T10:36:23;31.90;98.70
43227;DHT22;28839;52.404;9.808;2022-08-03T10:43:22;31.90;97.80
43227;DHT22;28839;52.404;9.808;2022-08-03T10:50:18;31.90;98.90
43227;DHT22;28839;52.404;9.808;2022-08-03T10:57:47;32.00;98.00
43227;DHT22;28839;52.404;9.808;2022-08-03T11:04:42;31.50;97.80
43227;DHT22;28839;52.404;9.808;2022-08-03T11:11:37;31.90;98.60
43227;DHT22;28839;52.404;9.808;2022-08-03T11:18:33;32.40;98.00
43227;DHT22;28839;52.404;9.808;2022-08-03T11:25:27;31.80;99.00
43227;DHT22;28839;52.404;9.808;2022-08-03T11:32:50;32.10;98.20
43227;DHT22;28839;52.404;9.808;2022-08-03T11:39:46;32.40;98.20
43227;DHT22;28839;52.404;9.808;2022-08-03T11:46:41;32.20;98.20
43227;DHT22;28839;52.404;9.808;2022-08-03T11:53:35;32.40;97.80
43227;DHT22;28839;52.404;9.808;2022-08-03T12:00:31;32.40;97.60
43227;DHT22;28839;52.404;9.808;2022-08-03T12:07:26;32.30;97.90
43227;DHT22;28839;52.404;9.808;2022-08-03T12:14:20;32.20;97.00
43227;DHT22;28839;52.404;9.808;2022-08-03T12:21:15;32.50;97.40
43227;DHT22;28839;52.404;9.808;2022-08-03T12:28:14;32.60;97.10
43227;DHT22;28839;52.404;9.808;2022-08-03T12:35:20;32.20;96.60
43227;DHT22;28839;52.404;9.808;2022-08-03T12:42:15;32.10;97.20
43227;DHT22;28839;52.404;9.808;2022-08-03T12:49:11;31.90;96.00
43227;DHT22;28839;52.404;9.808;2022-08-03T12:56:06;32.10;96.40
43227;DHT22;28839;52.404;9.808;2022-08-03T13:03:04;31.80;96.50
43227;DHT22;28839;52.404;9.808;2022-08-03T13:09:58;32.10;96.40
43227;DHT22;28839;52.404;9.808;2022-08-03T13:16:52;31.70;96.50
43227;DHT22;28839;52.404;9.808;2022-08-03T13:23:48;31.90;97.10
43227;DHT22;28839;52.404;9.808;2022-08-03T13:30:41;32.20;96.00
43227;DHT22;28839;52.404;9.808;2022-08-03T13:37:36;31.90;96.60
43227;DHT22;28839;52.404;9.808;2022-08-03T13:44:31;32.00;97.50
43227;DHT22;28839;52.404;9.808;2022-08-03T13:51:25;32.40;97.30
43227;DHT22;28839;52.404;9.808;2022-08-03T13:58:19;32.10;96.30
43227;DHT22;28839;52.404;9.808;2022-08-03T14:05:14;32.20;96.60
43227;DHT22;28839;52.404;9.808;2022-08-03T14:12:08;32.40;96.50
43227;DHT22;28839;52.404;9.808;2022-08-03T14:19:02;32.80;93.90
43227;DHT22;28839;52.404;9.808;2022-08-03T14:25:57;32.90;92.80
43227;DHT22;28839;52.404;9.808;2022-08-03T14:32:51;33.30;93.40
43227;DHT22;28839;52.404;9.808;2022-08-03T14:39:45;33.30;93.50
43227;DHT22;28839;52.404;9.808;2022-08-03T14:46:41;33.10;93.40
43227;DHT22;28839;52.404;9.808;2022-08-03T14:53:35;33.10;93.50
43227;DHT22;28839;52.404;9.808;2022-08-03T15:00:29;33.30;93.20
43227;DHT22;28839;52.404;9.808;2022-08-03T15:07:24;33.10;93.40
43227;DHT22;28839;52.404;9.808;2022-08-03T15:14:18;32.80;93.40
43227;DHT22;28839;52.404;9.808;2022-08-03T15:21:12;33.10;93.70
43227;DHT22;28839;52.404;9.808;2022-08-03T15:28:07;33.20;94.00
43227;DHT22;28839;52.404;9.808;2022-08-03T15:35:01;33.10;93.20
43227;DHT22;28839;52.404;9.808;2022-08-03T15:41:55;33.10;93.00
43227;DHT22;28839;52.404;9.808;2022-08-03T15:48:50;32.70;93.30
43227;DHT22;28839;52.404;9.808;2022-08-03T15:55:44;33.10;93.60
43227;DHT22;28839;52.404;9.808;2022-08-03T16:02:37;33.00;93.80
43227;DHT22;28839;52.404;9.808;2022-08-03T16:09:33;32.90;93.80
43227;DHT22;28839;52.404;9.808;2022-08-03T16:16:27;32.30;93.50
43227;DHT22;28839;52.404;9.808;2022-08-03T16:23:20;32.20;94.20
43227;DHT22;28839;52.404;9.808;2022-08-03T16:30:16;32.10;95.50
43227;DHT22;28839;52.404;9.808;2022-08-03T16:37:10;32.30;94.50
43227;DHT22;28839;52.404;9.808;2022-08-03T16:44:04;32.20;95.00
43227;DHT22;28839;52.404;9.808;2022-08-03T16:50:59;32.50;94.10
43227;DHT22;28839;52.404;9.808;2022-08-03T16:57:54;32.70;94.20
43227;DHT22;28839;52.404;9.808;2022-08-03T17:04:48;32.80;93.80
43227;DHT22;28839;52.404;9.808;2022-08-03T17:11:51;32.80;94.40
43227;DHT22;28839;52.404;9.808;2022-08-03T17:18:50;32.40;93.80
43227;DHT22;28839;52.404;9.808;2022-08-03T17:25:45;32.20;94.30
43227;DHT22;28839;52.404;9.808;2022-08-03T17:32:42;32.10;94.70
43227;DHT22;28839;52.404;9.808;2022-08-03T17:39:38;31.80;94.40
43227;DHT22;28839;52.404;9.808;2022-08-03T17:46:33;31.50;96.00
43227;DHT22;28839;52.404;9.808;2022-08-03T17:53:31;31.40;95.70
43227;DHT22;28839;52.404;9.808;2022-08-03T18:00:26;31.50;95.60
43227;DHT22;28839;52.404;9.808;2022-08-03T18:07:39;31.10;96.70
43227;DHT22;28839;52.404;9.808;2022-08-03T18:14:41;31.10;96.90
43227;DHT22;28839;52.404;9.808;2022-08-03T18:21:36;31.00;97.10
43227;DHT22;28839;52.404;9.808;2022-08-03T18:28:30;30.50;98.80
43227;DHT22;28839;52.404;9.808;2022-08-03T18:35:25;30.40;99.20
43227;DHT22;28839;52.404;9.808;2022-08-03T18:42:19;29.70;99.90
43227;DHT22;28839;52.404;9.808;2022-08-03T18:49:27;29.70;99.90
43227;DHT22;28839;52.404;9.808;2022-08-03T18:56:35;29.70;99.90
43227;DHT22;28839;52.404;9.808;2022-08-03T19:03:34;29.00;99.90
43227;DHT22;28839;52.404;9.808;2022-08-03T19:10:31;28.60;99.90
43227;DHT22;28839;52.404;9.808;2022-08-03T19:17:28;28.20;99.90
43227;DHT22;28839;52.404;9.808;2022-08-03T19:24:27;27.90;99.90
43227;DHT22;28839;52.404;9.808;2022-08-03T19:31:23;27.70;99.90
43227;DHT22;28839;52.404;9.808;2022-08-03T19:38:18;27.40;99.90
43227;DHT22;28839;52.404;9.808;2022-08-03T19:45:15;27.20;99.90
43227;DHT22;28839;52.404;9.808;2022-08-03T19:52:09;26.80;99.90
43227;DHT22;28839;52.404;9.808;2022-08-03T19:59:06;26.60;99.90
43227;DHT22;28839;52.404;9.808;2022-08-03T20:06:01;26.40;99.90
43227;DHT22;28839;52.404;9.808;2022-08-03T20:12:55;26.30;99.90
43227;DHT22;28839;52.404;9.808;2022-08-03T20:19:52;26.00;99.90
43227;DHT22;28839;52.404;9.808;2022-08-03T20:26:50;25.80;99.90
43227;DHT22;28839;52.404;9.808;2022-08-03T20:33:44;25.60;99.90
43227;DHT22;28839;52.404;9.808;2022-08-03T20:40:40;25.40;99.90
43227;DHT22;28839;52.404;9.808;2022-08-03T20:47:34;25.30;99.90
43227;DHT22;28839;52.404;9.808;2022-08-03T20:54:28;25.10;99.90
43227;DHT22;28839;52.404;9.808;2022-08-03T21:01:24;24.90;99.90
43227;DHT22;28839;52.404;9.808;2022-08-03T21:08:20;24.80;99.90
43227;DHT22;28839;52.404;9.808;2022-08-03T21:15:15;24.70;99.90
43227;DHT22;28839;52.404;9.808;2022-08-03T21:22:12;24.60;99.90
43227;DHT22;28839;52.404;9.808;2022-08-03T21:29:09;24.30;99.90
43227;DHT22;28839;52.404;9.808;2022-08-03T21:36:06;24.20;99.90
43227;DHT22;28839;52.404;9.808;2022-08-03T21:43:01;24.00;99.90
43227;DHT22;28839;52.404;9.808;2022-08-03T21:49:56;24.00;99.90
43227;DHT22;28839;52.404;9.808;2022-08-03T21:56:50;23.90;99.90
43227;DHT22;28839;52.404;9.808;2022-08-03T22:03:49;23.90;99.90
43227;DHT22;28839;52.404;9.808;2022-08-03T22:10:44;23.70;99.90
43227;DHT22;28839;52.404;9.808;2022-08-03T22:17:40;23.50;99.90
43227;DHT22;28839;52.404;9.808;2022-08-03T22:24:35;23.30;99.90
43227;DHT22;28839;52.404;9.808;2022-08-03T22:31:30;23.20;99.90
43227;DHT22;28839;52.404;9.808;2022-08-03T22:38:25;23.20;99.90
43227;DHT22;28839;52.404;9.808;2022-08-03T22:45:21;23.00;99.90
43227;DHT22;28839;52.404;9.808;2022-08-03T22:52:15;23.00;99.90
43227;DHT22;28839;52.404;9.808;2022-08-03T22:59:09;23.00;99.90
43227;DHT22;28839;52.404;9.808;2022-08-03T23:06:04;22.80;99.90
43227;DHT22;28839;52.404;9.808;2022-08-03T23:13:00;22.70;99.90
43227;DHT22;28839;52.404;9.808;2022-08-03T23:19:57;22.50;99.90
43227;DHT22;28839;52.404;9.808;2022-08-03T23:26:55;22.40;99.90
43227;DHT22;28839;52.404;9.808;2022-08-03T23:33:50;22.30;99.90
43227;DHT22;28839;52.404;9.808;2022-08-03T23:41:06;22.20;99.90
43227;DHT22;28839;52.404;9.808;2022-08-03T23:48:02;22.10;99.90
43227;DHT22;28839;52.404;9.808;2022-08-03T23:55:06;22.10;99.90
